createdAt,value
2019-02-07T00:00:47.856Z,2.30
2019-02-07T00:03:35.538Z,2.20
2019-02-07T00:06:24.919Z,2.40
2019-02-07T00:09:12.668Z,2.70
2019-02-07T00:12:00.326Z,2.47
2019-02-07T00:14:48.004Z,2.60
2019-02-07T00:17:35.664Z,2.43
2019-02-07T00:20:23.344Z,2.30
2019-02-07T00:26:04.570Z,2.40
2019-02-07T00:28:52.241Z,2.00
2019-02-07T00:31:41.615Z,2.30
2019-02-07T00:34:29.304Z,1.90
2019-02-07T00:37:16.956Z,2.20
2019-02-07T00:40:25.744Z,2.60
2019-02-07T00:46:07.176Z,2.00
2019-02-07T00:48:54.839Z,2.07
2019-02-07T00:51:42.487Z,2.33
2019-02-07T00:54:30.164Z,2.00
2019-02-07T00:57:17.812Z,2.30
2019-02-07T01:00:24.904Z,2.30
2019-02-07T01:03:12.570Z,2.20
2019-02-07T01:06:02.284Z,2.30
2019-02-07T01:08:49.957Z,2.20
2019-02-07T01:11:37.603Z,2.37
2019-02-07T01:14:25.577Z,2.30
2019-02-07T01:17:13.232Z,2.07
2019-02-07T01:25:47.877Z,2.23
2019-02-07T01:28:35.544Z,2.00
2019-02-07T01:31:23.446Z,2.10
2019-02-07T01:34:11.113Z,2.40
2019-02-07T01:36:59.008Z,2.20
2019-02-07T01:42:39.963Z,2.10
2019-02-07T01:45:27.640Z,2.53
2019-02-07T01:48:15.336Z,2.20
2019-02-07T01:51:03.040Z,2.20
2019-02-07T01:53:43.480Z,2.20
2019-02-07T01:56:24.144Z,2.30
2019-02-07T01:59:05.060Z,2.30
2019-02-07T02:01:45.950Z,2.03
2019-02-07T02:04:26.080Z,2.40
2019-02-07T02:07:06.549Z,2.00
2019-02-07T02:09:47.428Z,2.20
2019-02-07T02:12:28.404Z,2.10
2019-02-07T02:15:09.245Z,2.17
2019-02-07T02:17:49.450Z,1.93
2019-02-07T02:20:30.726Z,2.13
2019-02-07T02:23:11.618Z,2.13
2019-02-07T02:25:52.739Z,2.00
2019-02-07T02:28:34.060Z,2.30
2019-02-07T02:31:14.812Z,2.27
2019-02-07T02:33:55.915Z,2.00
2019-02-07T02:36:36.639Z,2.10
2019-02-07T02:39:16.778Z,2.00
2019-02-07T02:41:57.900Z,2.00
2019-02-07T02:44:38.476Z,2.17
2019-02-07T02:47:19.508Z,1.83
2019-02-07T02:49:59.815Z,2.17
2019-02-07T02:52:40.921Z,2.10
2019-02-07T02:55:41.242Z,2.10
2019-02-07T02:58:22.340Z,2.23
2019-02-07T03:01:22.317Z,1.97
2019-02-07T03:04:21.773Z,2.20
2019-02-07T03:10:13.706Z,2.13
2019-02-07T03:13:13.164Z,2.10
2019-02-07T03:15:55.102Z,2.00
2019-02-07T03:18:55.009Z,2.30
2019-02-07T03:21:54.661Z,1.97
2019-02-07T03:24:54.646Z,1.80
2019-02-07T03:27:39.674Z,2.07
2019-02-07T03:30:21.722Z,2.00
2019-02-07T03:36:11.446Z,2.00
2019-02-07T03:38:55.979Z,2.03
2019-02-07T03:44:30.583Z,2.40
2019-02-07T03:50:08.781Z,2.10
2019-02-07T03:53:08.758Z,2.20
2019-02-07T03:56:10.433Z,2.10
2019-02-07T04:01:47.022Z,2.07
2019-02-07T04:04:31.864Z,1.83
2019-02-07T04:07:14.134Z,2.13
2019-02-07T04:09:56.108Z,2.13
2019-02-07T04:12:41.004Z,2.10
2019-02-07T04:18:34.816Z,2.00
2019-02-07T04:27:21.418Z,2.20
2019-02-07T04:30:21.173Z,2.00
2019-02-07T04:33:03.211Z,2.00
2019-02-07T04:36:02.913Z,2.00
2019-02-07T04:39:02.353Z,2.10
2019-02-07T04:42:02.026Z,1.90
2019-02-07T04:45:02.049Z,2.03
2019-02-07T04:47:44.186Z,1.87
2019-02-07T04:50:26.983Z,1.80
2019-02-07T04:53:27.219Z,2.00
2019-02-07T04:56:12.008Z,2.10
2019-02-07T05:01:50.542Z,2.40
2019-02-07T05:04:50.397Z,1.90
2019-02-07T05:07:35.687Z,2.23
2019-02-07T05:10:35.544Z,2.30
2019-02-07T05:13:17.669Z,2.00
2019-02-07T05:16:17.902Z,2.00
2019-02-07T05:19:03.582Z,2.00
2019-02-07T05:22:03.945Z,1.90
2019-02-07T05:24:49.154Z,1.93
2019-02-07T05:27:35.136Z,2.00
2019-02-07T05:30:19.682Z,2.03
2019-02-07T05:33:19.508Z,2.10
2019-02-07T05:36:19.298Z,2.00
2019-02-07T05:42:07.812Z,2.00
2019-02-07T05:45:07.488Z,2.00
2019-02-07T05:48:06.905Z,1.90
2019-02-07T05:50:49.744Z,1.93
2019-02-07T05:56:42.298Z,2.20
2019-02-07T05:59:42.436Z,2.03
2019-02-07T06:02:27.543Z,2.60
2019-02-07T06:05:27.506Z,2.30
2019-02-07T06:08:13.142Z,2.30
2019-02-07T06:11:12.857Z,1.60
2019-02-07T06:14:13.035Z,1.90
2019-02-07T06:17:12.909Z,2.10
2019-02-07T06:19:58.044Z,2.30
2019-02-07T06:22:57.520Z,2.03
2019-02-07T06:25:57.481Z,1.97
2019-02-07T06:28:58.161Z,2.10
2019-02-07T06:31:40.469Z,1.87
2019-02-07T06:34:29.230Z,2.00
2019-02-07T06:37:13.583Z,2.10
2019-02-07T06:39:58.111Z,1.90
2019-02-07T06:42:40.258Z,1.80
2019-02-07T06:45:23.000Z,2.13
2019-02-07T06:48:05.452Z,2.10
2019-02-07T06:54:12.620Z,2.10
2019-02-07T06:56:54.513Z,2.03
2019-02-07T06:59:37.588Z,2.00
2019-02-07T07:02:23.513Z,1.93
2019-02-07T07:05:23.679Z,2.03
2019-02-07T07:08:23.592Z,1.93
2019-02-07T07:11:06.554Z,1.90
2019-02-07T07:13:46.864Z,2.20
2019-02-07T07:19:36.577Z,1.97
2019-02-07T07:25:55.508Z,2.07
2019-02-07T07:28:55.552Z,2.07
2019-02-07T07:31:41.018Z,1.90
2019-02-07T07:37:47.887Z,2.10
2019-02-07T07:43:55.859Z,1.93
2019-02-07T07:46:55.512Z,1.83
2019-02-07T07:49:38.260Z,2.10
2019-02-07T07:52:23.501Z,2.20
2019-02-07T07:55:09.440Z,1.87
2019-02-07T07:57:55.072Z,2.20
2019-02-07T08:03:48.217Z,2.13
2019-02-07T08:06:48.178Z,2.10
2019-02-07T08:09:47.989Z,2.30
2019-02-07T08:12:47.948Z,2.10
2019-02-07T08:15:47.376Z,2.10
2019-02-07T08:18:47.256Z,2.10
2019-02-07T08:21:32.303Z,1.90
2019-02-07T08:24:32.581Z,2.40
2019-02-07T08:27:17.536Z,2.10
2019-02-07T08:30:02.996Z,2.33
2019-02-07T08:33:02.768Z,2.20
2019-02-07T08:38:38.910Z,1.93
2019-02-07T08:41:38.293Z,1.90
2019-02-07T08:44:20.525Z,2.20
2019-02-07T08:47:19.982Z,1.90
2019-02-07T08:50:19.764Z,1.97
2019-02-07T08:53:02.032Z,2.20
2019-02-07T08:56:01.771Z,1.97
2019-02-07T08:58:44.320Z,2.20
2019-02-07T09:01:44.366Z,2.07
2019-02-07T09:04:44.108Z,2.13
2019-02-07T09:07:26.484Z,2.27
2019-02-07T09:10:25.956Z,2.30
2019-02-07T09:16:31.462Z,2.20
2019-02-07T09:19:38.305Z,2.13
2019-02-07T09:22:45.166Z,2.57
2019-02-07T09:25:52.240Z,2.13
2019-02-07T09:28:59.094Z,2.30
2019-02-07T09:32:06.201Z,2.27
2019-02-07T09:38:21.697Z,2.40
2019-02-07T09:41:28.560Z,2.17
2019-02-07T09:44:28.499Z,2.30
2019-02-07T09:47:28.089Z,2.47
2019-02-07T09:50:27.984Z,2.30
2019-02-07T09:53:23.479Z,2.23
2019-02-07T09:56:14.461Z,2.30
2019-02-07T09:58:57.028Z,2.50
2019-02-07T10:01:39.096Z,2.23
2019-02-07T10:04:21.170Z,2.63
2019-02-07T10:07:06.789Z,2.40
2019-02-07T10:09:49.081Z,2.03
2019-02-07T10:12:48.576Z,2.23
2019-02-07T10:18:43.241Z,2.10
2019-02-07T10:21:42.746Z,2.43
2019-02-07T10:24:42.555Z,2.10
2019-02-07T10:27:42.212Z,2.20
2019-02-07T10:30:42.409Z,2.50
2019-02-07T10:33:27.792Z,2.40
2019-02-07T10:36:27.946Z,2.30
2019-02-07T10:39:09.852Z,2.50
2019-02-07T10:42:09.502Z,2.50
2019-02-07T10:45:16.385Z,2.60
2019-02-07T10:48:23.772Z,2.20
2019-02-07T10:51:30.630Z,2.23
2019-02-07T11:02:51.617Z,2.27
2019-02-07T11:05:33.506Z,2.60
2019-02-07T11:08:15.549Z,2.10
2019-02-07T11:11:02.759Z,2.30
2019-02-07T11:13:45.376Z,2.20
2019-02-07T11:16:30.096Z,2.20
2019-02-07T11:19:29.509Z,2.67
2019-02-07T11:22:11.697Z,2.43
2019-02-07T11:24:53.565Z,2.00
2019-02-07T11:27:53.665Z,2.47
2019-02-07T11:30:36.079Z,2.33
2019-02-07T11:33:35.582Z,2.50
2019-02-07T11:36:35.469Z,2.30
2019-02-07T11:39:35.208Z,2.37
2019-02-07T11:42:35.312Z,2.37
2019-02-07T11:45:17.595Z,2.43
2019-02-07T11:54:18.664Z,2.30
2019-02-07T11:59:54.517Z,2.13
2019-02-07T12:02:54.161Z,2.10
2019-02-07T12:05:36.554Z,2.20
2019-02-07T12:11:26.136Z,2.30
2019-02-07T12:14:11.872Z,2.20
2019-02-07T12:20:19.365Z,2.27
2019-02-07T12:23:26.609Z,2.27
2019-02-07T12:26:33.722Z,2.40
2019-02-07T12:29:41.041Z,2.30
2019-02-07T12:32:23.797Z,2.23
2019-02-07T12:35:24.021Z,5.40
2019-02-07T12:47:07.093Z,3.90
2019-02-07T12:50:06.584Z,3.80
2019-02-07T12:52:51.308Z,4.93
2019-02-07T12:55:52.661Z,4.07
2019-02-07T13:04:54.933Z,5.27
2019-02-07T13:07:37.064Z,6.23
2019-02-07T13:13:30.717Z,16.90
2019-02-07T13:19:49.897Z,7.77
2019-02-07T13:22:49.713Z,5.07
2019-02-07T13:25:49.295Z,4.70
2019-02-07T13:34:33.532Z,5.67
2019-02-07T13:43:15.409Z,5.37
2019-02-07T13:48:52.002Z,4.33
2019-02-07T13:51:33.798Z,12.83
2019-02-07T13:54:33.229Z,22.63
2019-02-07T13:57:18.416Z,20.30
2019-02-07T14:00:18.164Z,23.20
2019-02-07T14:03:17.788Z,18.33
2019-02-07T14:06:17.528Z,20.33
2019-02-07T14:09:16.877Z,16.53
2019-02-07T14:15:10.476Z,20.17
2019-02-07T14:18:10.333Z,15.13
2019-02-07T14:20:52.603Z,16.27
2019-02-07T14:23:37.212Z,18.80
2019-02-07T14:26:20.044Z,18.40
2019-02-07T14:29:19.621Z,16.13
2019-02-07T14:32:20.016Z,17.07
2019-02-07T14:35:19.824Z,16.07
2019-02-07T14:38:19.568Z,14.40
2019-02-07T14:41:02.156Z,14.20
2019-02-07T14:46:55.799Z,13.97
2019-02-07T14:49:36.693Z,13.37
2019-02-07T14:52:17.721Z,13.60
2019-02-07T14:54:59.054Z,12.67
2019-02-07T14:57:39.724Z,12.67
2019-02-07T15:00:20.938Z,11.93
2019-02-07T15:03:02.396Z,12.73
2019-02-07T15:09:00.988Z,10.07
2019-02-07T15:11:41.516Z,9.57
2019-02-07T15:14:22.188Z,10.03
2019-02-07T15:17:02.864Z,10.40
2019-02-07T15:19:44.165Z,11.37
2019-02-07T15:22:25.369Z,10.57
2019-02-07T15:25:06.548Z,10.37
2019-02-07T15:27:47.607Z,9.03
2019-02-07T15:30:28.541Z,8.67
2019-02-07T15:33:08.797Z,10.47
2019-02-07T15:35:50.001Z,8.87
2019-02-07T15:38:31.198Z,9.03
2019-02-07T15:41:11.826Z,9.03
2019-02-07T15:43:52.717Z,8.10
2019-02-07T15:46:33.824Z,8.03
2019-02-07T15:49:14.465Z,8.60
2019-02-07T15:51:55.730Z,9.40
2019-02-07T15:54:36.794Z,8.80
2019-02-07T15:57:17.224Z,7.83
2019-02-07T15:59:58.298Z,7.37
2019-02-07T16:02:39.106Z,8.30
2019-02-07T16:05:20.272Z,8.03
2019-02-07T16:08:01.604Z,7.70
2019-02-07T16:10:41.878Z,7.70
2019-02-07T16:13:22.655Z,7.67
2019-02-07T16:16:03.582Z,8.70
2019-02-07T16:18:44.616Z,8.03
2019-02-07T16:21:44.483Z,7.47
2019-02-07T16:30:30.568Z,7.03
2019-02-07T16:33:10.344Z,6.20
2019-02-07T16:35:51.037Z,6.40
2019-02-07T16:38:32.048Z,9.70
2019-02-07T16:41:12.324Z,8.60
2019-02-07T16:43:53.537Z,9.87
2019-02-07T16:46:34.508Z,8.87
2019-02-07T16:49:13.190Z,8.73
2019-02-07T16:52:00.695Z,8.73
2019-02-07T16:54:48.498Z,9.07
2019-02-07T16:57:36.264Z,7.30
2019-02-07T17:00:43.374Z,8.57
2019-02-07T17:03:31.070Z,8.03
2019-02-07T17:06:18.791Z,8.37
2019-02-07T17:15:00.934Z,7.33
2019-02-07T17:17:48.616Z,7.30
2019-02-07T17:20:36.304Z,7.40
2019-02-07T17:23:24.084Z,7.07
2019-02-07T17:26:13.627Z,6.97
2019-02-07T17:29:01.548Z,7.13
2019-02-07T17:31:49.223Z,6.83
2019-02-07T17:40:45.744Z,6.57
2019-02-07T17:43:26.563Z,6.77
2019-02-07T17:46:07.402Z,6.37
2019-02-07T17:48:46.057Z,6.47
2019-02-07T17:51:52.064Z,5.80
2019-02-07T17:54:39.762Z,6.37
2019-02-07T17:57:27.436Z,5.83
2019-02-07T18:03:15.944Z,5.20
2019-02-07T18:06:04.149Z,5.70
2019-02-07T18:08:53.535Z,5.03
2019-02-07T18:11:41.476Z,5.50
2019-02-07T18:14:29.124Z,4.43
2019-02-07T18:17:16.796Z,5.20
2019-02-07T18:20:23.896Z,4.97
2019-02-07T18:23:11.552Z,4.93
2019-02-07T18:25:52.713Z,5.43
2019-02-07T18:28:33.877Z,5.50
2019-02-07T18:31:14.697Z,5.47
2019-02-07T18:33:55.702Z,4.87
2019-02-07T18:39:53.791Z,5.47
2019-02-07T18:42:41.472Z,5.13
2019-02-07T18:45:29.142Z,4.63
2019-02-07T18:48:16.820Z,5.60
2019-02-07T18:53:57.706Z,6.03
2019-02-07T18:56:45.665Z,5.13
2019-02-07T18:59:33.592Z,4.67
2019-02-07T19:02:21.280Z,4.70
2019-02-07T19:05:29.749Z,5.33
2019-02-07T19:08:17.419Z,5.33
2019-02-07T19:11:05.126Z,4.70
2019-02-07T19:13:52.860Z,5.07
2019-02-07T19:16:40.524Z,4.87
2019-02-07T19:19:28.197Z,4.23
2019-02-07T19:22:27.775Z,5.27
2019-02-07T19:24:57.972Z,5.63
2019-02-07T19:27:39.328Z,5.57
2019-02-07T19:30:20.260Z,4.93
2019-02-07T19:33:01.417Z,5.13
2019-02-07T19:35:41.648Z,4.90
2019-02-07T19:38:23.044Z,4.73
2019-02-07T19:41:03.658Z,4.07
2019-02-07T19:43:45.662Z,4.73
2019-02-07T19:46:26.061Z,4.27
2019-02-07T19:49:07.097Z,4.40
2019-02-07T19:51:48.128Z,4.70
2019-02-07T19:54:29.152Z,4.43
2019-02-07T19:57:10.068Z,4.03
2019-02-07T20:02:59.973Z,3.70
2019-02-07T20:05:40.905Z,3.60
2019-02-07T20:08:22.032Z,3.73
2019-02-07T20:11:02.823Z,3.83
2019-02-07T20:13:43.176Z,4.00
2019-02-07T20:16:24.823Z,3.63
2019-02-07T20:19:05.306Z,3.97
2019-02-07T20:21:45.771Z,3.80
2019-02-07T20:24:26.774Z,4.00
2019-02-07T20:27:07.653Z,3.90
2019-02-07T20:29:48.577Z,4.17
2019-02-07T20:32:29.833Z,3.80
2019-02-07T20:35:10.515Z,4.10
2019-02-07T20:37:51.561Z,4.73
2019-02-07T20:40:32.247Z,3.40
2019-02-07T20:43:13.104Z,3.97
2019-02-07T20:45:54.455Z,3.73
2019-02-07T20:51:54.048Z,3.80
2019-02-07T20:54:35.045Z,3.87
2019-02-07T20:57:15.998Z,4.17
2019-02-07T20:59:56.589Z,3.90
2019-02-07T21:02:37.568Z,3.87
2019-02-07T21:05:18.513Z,4.20
2019-02-07T21:11:18.349Z,3.43
2019-02-07T21:17:17.551Z,4.10
2019-02-07T21:19:58.305Z,3.93
2019-02-07T21:28:55.796Z,3.20
2019-02-07T21:31:36.961Z,3.10
2019-02-07T21:34:17.937Z,3.70
2019-02-07T21:36:58.996Z,3.37
2019-02-07T21:39:39.782Z,3.27
2019-02-07T21:42:21.134Z,3.80
2019-02-07T21:45:01.580Z,3.10
2019-02-07T21:47:42.238Z,2.70
2019-02-07T21:50:23.604Z,3.50
2019-02-07T21:53:04.656Z,2.30
2019-02-07T21:55:45.691Z,3.30
2019-02-07T21:58:26.737Z,2.67
2019-02-07T22:01:07.790Z,2.27
2019-02-07T22:03:48.285Z,2.40
2019-02-07T22:06:29.175Z,2.57
2019-02-07T22:09:10.025Z,2.40
2019-02-07T22:11:50.706Z,2.47
2019-02-07T22:14:31.484Z,2.63
2019-02-07T22:17:12.301Z,2.47
2019-02-07T22:19:53.268Z,2.80
2019-02-07T22:22:34.066Z,2.30
2019-02-07T22:25:15.137Z,2.43
2019-02-07T22:27:53.789Z,2.10
2019-02-07T22:30:41.731Z,2.30
2019-02-07T22:33:29.409Z,2.10
2019-02-07T22:36:17.394Z,2.37
2019-02-07T22:39:26.007Z,2.20
2019-02-07T22:42:13.939Z,2.10
2019-02-07T22:45:01.613Z,2.03
2019-02-07T22:47:49.265Z,1.80
2019-02-07T22:50:37.576Z,2.20
2019-02-07T22:53:25.224Z,1.90
2019-02-07T22:56:12.901Z,1.93
2019-02-07T22:59:23.134Z,1.73
2019-02-07T23:04:43.133Z,1.80
2019-02-07T23:07:30.791Z,2.00
2019-02-07T23:10:18.475Z,2.03
2019-02-07T23:13:06.200Z,2.00
2019-02-07T23:15:53.882Z,1.87
2019-02-07T23:18:41.564Z,2.20
2019-02-07T23:21:29.234Z,1.73
2019-02-07T23:24:09.681Z,1.80
2019-02-07T23:26:50.785Z,1.87
2019-02-07T23:29:31.412Z,1.83
2019-02-07T23:32:12.068Z,1.80
2019-02-07T23:34:53.091Z,1.53
2019-02-07T23:37:33.742Z,1.60
2019-02-07T23:40:14.473Z,1.60
2019-02-07T23:46:14.163Z,1.50
2019-02-07T23:48:55.052Z,1.60
2019-02-07T23:51:35.712Z,1.50
2019-02-07T23:54:16.561Z,1.73
